Time;durP1;ratioP1;P1;durP2;ratioP2;P2;SDS_P1;SDS_P2;PMS_P1;PMS_P2;Temp;Humidity;BMP_temperature;BMP_pressure;BME280_temperature;BME280_humidity;BME280_pressure;Samples;Min_cycle;Max_cycle;Signal;HPM_P1;HPM_P2
2021/10/01 00:00:37;;;;;;;2.30;1.00;;;11.70;60.70;;;;;;2590136;53;20923;-65
2021/10/01 00:03:03;;;;;;;2.72;1.12;;;11.60;60.50;;;;;;2343558;55;20951;-65
2021/10/01 00:05:30;;;;;;;2.70;1.10;;;11.50;60.50;;;;;;2562391;53;20974;-65
2021/10/01 00:07:56;;;;;;;2.25;1.02;;;11.50;60.50;;;;;;2547329;53;20924;-65
2021/10/01 00:10:23;;;;;;;2.80;1.17;;;11.50;60.60;;;;;;2562580;53;20928;-65
2021/10/01 00:12:49;;;;;;;2.35;0.88;;;11.50;60.70;;;;;;2343015;55;20976;-66
2021/10/01 00:15:18;;;;;;;2.47;0.90;;;11.50;60.70;;;;;;2344236;55;20939;-65
2021/10/01 00:17:45;;;;;;;2.78;1.00;;;11.50;60.70;;;;;;2343858;55;20943;-65
2021/10/01 00:20:11;;;;;;;2.53;1.00;;;11.40;60.80;;;;;;2344025;55;20924;-65
2021/10/01 00:22:38;;;;;;;2.87;1.27;;;11.40;60.80;;;;;;2343964;55;20933;-65
2021/10/01 00:25:05;;;;;;;3.03;1.00;;;11.40;60.90;;;;;;2323773;54;21330;-65
2021/10/01 00:27:32;;;;;;;2.65;1.08;;;11.40;61.00;;;;;;2403522;53;20918;-64
2021/10/01 00:29:58;;;;;;;2.10;0.88;;;11.40;61.00;;;;;;2438300;53;20918;-65
2021/10/01 00:32:24;;;;;;;2.60;1.00;;;11.40;61.00;;;;;;2415554;53;21009;-65
2021/10/01 00:34:52;;;;;;;2.50;1.17;;;11.40;61.00;;;;;;2342938;55;20927;-65
2021/10/01 00:37:18;;;;;;;4.87;1.02;;;11.30;60.90;;;;;;2337327;54;21038;-66
2021/10/01 00:39:44;;;;;;;2.67;1.10;;;11.30;60.90;;;;;;2328876;54;21326;-66
2021/10/01 00:42:11;;;;;;;4.28;1.23;;;11.30;61.00;;;;;;2343368;55;20935;-65
2021/10/01 00:44:37;;;;;;;2.58;0.90;;;11.30;61.00;;;;;;2333688;54;20971;-64
2021/10/01 00:47:03;;;;;;;2.33;0.95;;;11.30;61.00;;;;;;2326836;54;21204;-64
2021/10/01 00:49:30;;;;;;;3.70;1.37;;;11.30;61.10;;;;;;2325459;54;20991;-66
2021/10/01 00:51:59;;;;;;;3.17;1.30;;;11.20;61.00;;;;;;2330593;54;20972;-65
2021/10/01 00:54:26;;;;;;;2.62;1.05;;;11.20;61.10;;;;;;2336367;54;20918;-65
2021/10/01 00:56:53;;;;;;;3.92;1.40;;;11.20;61.10;;;;;;2343712;54;20928;-65
2021/10/01 00:59:21;;;;;;;3.20;1.23;;;11.20;61.00;;;;;;2333584;54;20982;-65
2021/10/01 01:01:47;;;;;;;2.80;1.27;;;11.10;60.90;;;;;;2579795;53;20924;-64
2021/10/01 01:04:16;;;;;;;2.40;0.90;;;11.10;61.00;;;;;;2345841;55;20935;-65
2021/10/01 01:07:17;;;;;;;2.20;0.90;;;11.10;61.10;;;;;;2322143;54;20947;-64
2021/10/01 01:11:40;;;;;;;2.55;0.95;;;11.10;61.00;;;;;;2481731;53;20915;-65
2021/10/01 01:14:12;;;;;;;3.05;0.80;;;11.10;60.90;;;;;;2317935;54;20967;-66
2021/10/01 01:16:38;;;;;;;2.70;0.90;;;11.00;60.90;;;;;;2302713;55;21518;-65
2021/10/01 01:19:07;;;;;;;3.45;0.98;;;11.00;60.90;;;;;;2583457;53;21503;-65
2021/10/01 01:31:45;;;;;;;2.92;1.12;;;11.00;61.00;;;;;;2326912;54;21305;-66
2021/10/01 01:34:20;;;;;;;1.45;0.57;;;11.00;60.80;;;;;;2352197;53;21063;-64
2021/10/01 01:36:48;;;;;;;2.22;0.75;;;10.90;60.90;;;;;;2590296;53;21485;-66
2021/10/01 01:39:15;;;;;;;1.50;0.60;;;10.90;61.00;;;;;;2344505;54;20935;-66
2021/10/01 01:41:41;;;;;;;1.75;0.70;;;10.80;61.10;;;;;;2324984;55;21801;-64
2021/10/01 01:44:09;;;;;;;2.47;0.75;;;10.80;61.20;;;;;;2387781;53;21027;-65
2021/10/01 01:46:35;;;;;;;2.62;0.70;;;10.80;61.30;;;;;;2344029;55;21038;-64
2021/10/01 01:49:02;;;;;;;3.15;1.20;;;10.80;61.40;;;;;;2344046;55;21019;-65
2021/10/01 01:51:28;;;;;;;1.60;0.65;;;10.70;61.30;;;;;;2326329;54;20998;-66
2021/10/01 01:53:57;;;;;;;1.73;0.70;;;10.70;61.40;;;;;;2322423;54;20951;-65
2021/10/01 01:56:23;;;;;;;1.75;0.77;;;10.70;61.50;;;;;;2348019;55;21444;-64
2021/10/01 01:58:49;;;;;;;2.92;0.70;;;10.70;61.50;;;;;;2320972;54;20932;-65
2021/10/01 02:01:16;;;;;;;1.52;0.70;;;10.70;61.50;;;;;;2329688;54;20994;-65
2021/10/01 02:03:42;;;;;;;1.80;0.62;;;10.70;61.50;;;;;;2336890;54;21473;-64
2021/10/01 02:06:09;;;;;;;1.37;0.73;;;10.70;61.60;;;;;;2571647;53;21727;-64
2021/10/01 02:08:35;;;;;;;2.03;0.77;;;10.70;61.70;;;;;;2579974;53;20976;-65
2021/10/01 02:11:02;;;;;;;2.10;0.80;;;10.70;61.60;;;;;;2325627;54;21314;-64
2021/10/01 02:13:28;;;;;;;1.92;0.80;;;10.70;61.70;;;;;;2419129;53;21466;-64
2021/10/01 02:15:56;;;;;;;3.00;0.98;;;10.70;61.60;;;;;;2328962;54;20934;-66
2021/10/01 02:18:22;;;;;;;2.30;0.93;;;10.70;61.60;;;;;;2558006;52;21515;-64
2021/10/01 02:20:49;;;;;;;2.55;0.80;;;10.70;61.60;;;;;;2334069;54;20935;-65
2021/10/01 02:23:15;;;;;;;1.87;0.73;;;10.60;61.40;;;;;;2542918;53;20928;-64
2021/10/01 02:28:35;;;;;;;2.08;0.80;;;10.60;61.40;;;;;;2573329;52;20917;-64
2021/10/01 02:31:04;;;;;;;3.00;0.90;;;10.60;61.40;;;;;;2342776;55;20998;-64
2021/10/01 02:33:42;;;;;;;1.83;0.73;;;10.60;61.40;;;;;;2339876;54;20956;-64
2021/10/01 02:36:08;;;;;;;1.73;0.52;;;10.60;61.50;;;;;;2329051;54;20979;-65
2021/10/01 02:38:34;;;;;;;1.65;0.70;;;10.50;61.40;;;;;;2463190;53;21039;-64
2021/10/01 02:41:01;;;;;;;3.12;1.75;;;10.50;61.50;;;;;;2331341;54;20990;-64
2021/10/01 02:43:27;;;;;;;2.00;0.80;;;10.50;61.50;;;;;;2558244;52;20995;-65
2021/10/01 02:45:54;;;;;;;1.85;0.75;;;10.50;61.50;;;;;;2403604;53;20927;-65
2021/10/01 02:48:20;;;;;;;4.18;0.88;;;10.50;61.50;;;;;;2588635;53;20995;-64
2021/10/01 02:50:49;;;;;;;2.45;0.80;;;10.40;61.50;;;;;;2344217;55;21007;-64
2021/10/01 02:53:34;;;;;;;2.12;0.88;;;10.40;61.50;;;;;;2320237;54;20954;-64
2021/10/01 02:56:12;;;;;;;1.87;0.68;;;10.40;61.50;;;;;;2312432;55;20942;-64
2021/10/01 02:58:40;;;;;;;2.40;0.88;;;10.40;61.60;;;;;;2324849;54;20992;-65
2021/10/01 03:01:07;;;;;;;1.48;0.60;;;10.40;61.60;;;;;;2342275;54;20932;-64
2021/10/01 03:03:37;;;;;;;1.62;0.57;;;10.30;62.30;;;;;;2543610;53;20924;-65
2021/10/01 03:06:04;;;;;;;2.67;0.80;;;10.30;61.60;;;;;;2344683;55;20948;-64
2021/10/01 03:08:33;;;;;;;1.52;0.60;;;10.30;61.60;;;;;;2589929;53;20927;-64
2021/10/01 03:11:00;;;;;;;2.37;0.80;;;10.30;61.60;;;;;;2344054;54;20958;-64
2021/10/01 03:13:26;;;;;;;1.52;0.52;;;10.30;61.70;;;;;;2334454;53;21007;-64
2021/10/01 03:16:00;;;;;;;2.00;0.73;;;10.30;61.70;;;;;;2449336;53;21006;-64
2021/10/01 03:18:27;;;;;;;1.48;0.60;;;10.30;61.70;;;;;;2587439;53;20919;-64
2021/10/01 03:20:53;;;;;;;1.92;0.60;;;10.30;61.70;;;;;;2344614;55;21776;-64
2021/10/01 03:23:20;;;;;;;1.62;0.70;;;10.20;61.60;;;;;;2343512;55;21837;-63
2021/10/01 03:25:49;;;;;;;3.22;0.60;;;10.20;61.60;;;;;;2340782;54;20994;-63
2021/10/01 03:28:16;;;;;;;2.10;0.70;;;10.20;61.70;;;;;;2570290;53;20919;-64
2021/10/01 03:30:46;;;;;;;2.55;0.90;;;10.20;61.70;;;;;;2383218;53;21043;-65
2021/10/01 03:33:15;;;;;;;1.40;0.68;;;10.20;61.70;;;;;;2561484;53;21471;-64
2021/10/01 03:35:42;;;;;;;1.95;0.70;;;10.20;61.70;;;;;;2583694;53;20904;-64
2021/10/01 03:38:14;;;;;;;2.65;0.95;;;10.10;61.50;;;;;;2335006;54;21846;-63
2021/10/01 03:40:43;;;;;;;1.65;0.70;;;10.10;61.60;;;;;;2332382;54;21085;-64
2021/10/01 03:43:12;;;;;;;3.37;0.85;;;10.10;61.70;;;;;;2583229;53;20967;-65
2021/10/01 03:45:40;;;;;;;2.00;0.77;;;10.10;61.70;;;;;;2317998;54;20915;-65
2021/10/01 03:48:06;;;;;;;2.17;0.80;;;10.10;61.70;;;;;;2555616;52;21051;-64
2021/10/01 03:50:33;;;;;;;2.45;0.80;;;10.00;61.60;;;;;;2409615;53;21742;-66
2021/10/01 03:53:00;;;;;;;1.23;0.60;;;10.00;61.70;;;;;;2326330;54;20974;-65
2021/10/01 03:55:27;;;;;;;2.53;0.80;;;10.00;61.70;;;;;;2340440;54;20944;-65
2021/10/01 03:57:53;;;;;;;1.40;0.60;;;10.00;61.70;;;;;;2590671;53;20983;-65
2021/10/01 04:00:21;;;;;;;1.77;0.70;;;10.00;61.70;;;;;;2335376;54;21416;-64
2021/10/01 04:02:47;;;;;;;1.67;0.77;;;10.00;61.80;;;;;;2318963;54;20947;-65
2021/10/01 04:05:17;;;;;;;1.02;0.43;;;9.90;62.80;;;;;;2337794;54;20948;-65
2021/10/01 04:07:44;;;;;;;1.65;0.70;;;9.90;62.80;;;;;;2325959;54;21710;-64
2021/10/01 04:10:11;;;;;;;1.15;0.60;;;9.90;62.80;;;;;;2324805;54;20970;-64
2021/10/01 04:12:41;;;;;;;0.93;0.40;;;9.90;62.90;;;;;;2341195;54;20990;-63
2021/10/01 04:15:08;;;;;;;1.52;0.80;;;9.90;62.90;;;;;;2343511;55;21030;-64
2021/10/01 04:17:34;;;;;;;1.62;0.70;;;9.90;62.90;;;;;;2586103;53;20928;-64
2021/10/01 04:20:01;;;;;;;2.10;0.90;;;9.90;62.80;;;;;;2320479;54;22031;-64
2021/10/01 04:22:32;;;;;;;3.70;1.10;;;9.90;62.90;;;;;;2415036;53;21526;-65
2021/10/01 04:24:59;;;;;;;3.70;1.30;;;9.90;62.80;;;;;;2563222;53;20956;-64
2021/10/01 04:27:29;;;;;;;2.22;0.90;;;9.80;62.80;;;;;;2345210;54;20924;-65
2021/10/01 04:29:57;;;;;;;2.15;0.90;;;9.80;62.80;;;;;;2326693;54;20999;-64
2021/10/01 04:32:24;;;;;;;2.10;0.80;;;9.80;62.90;;;;;;2329305;53;20962;-64
2021/10/01 04:35:01;;;;;;;2.30;1.00;;;9.80;62.90;;;;;;2318459;55;21075;-64
2021/10/01 04:37:27;;;;;;;1.98;0.80;;;9.70;62.90;;;;;;2522632;53;20987;-65
2021/10/01 04:39:56;;;;;;;1.90;0.80;;;9.70;62.90;;;;;;2318874;54;20934;-65
2021/10/01 04:42:22;;;;;;;4.55;0.90;;;9.70;63.00;;;;;;2541980;53;20955;-65
2021/10/01 04:44:49;;;;;;;3.70;1.02;;;9.70;63.10;;;;;;2321003;54;21010;-65
2021/10/01 04:47:15;;;;;;;2.10;0.70;;;9.70;63.10;;;;;;2339823;54;20947;-65
2021/10/01 04:49:42;;;;;;;2.00;0.70;;;9.70;63.10;;;;;;2318649;54;20942;-64
2021/10/01 04:52:09;;;;;;;2.00;0.73;;;9.70;63.10;;;;;;2339276;54;20976;-65
2021/10/01 04:54:36;;;;;;;1.50;0.70;;;9.70;63.20;;;;;;2549012;53;2172560;-63
2021/10/01 04:57:03;;;;;;;3.33;1.00;;;9.70;63.20;;;;;;2588163;53;21873;-65
2021/10/01 04:59:29;;;;;;;1.80;0.70;;;9.60;63.10;;;;;;2575384;53;20982;-63
2021/10/01 05:01:56;;;;;;;3.35;0.77;;;9.60;63.10;;;;;;2461935;53;20964;-64
2021/10/01 05:04:24;;;;;;;1.85;0.70;;;9.60;63.10;;;;;;2340236;54;21051;-64
2021/10/01 05:06:50;;;;;;;1.10;0.60;;;9.60;63.20;;;;;;2458827;53;21528;-63
2021/10/01 05:09:16;;;;;;;2.00;0.60;;;9.60;63.20;;;;;;2327481;54;20975;-64
2021/10/01 05:11:42;;;;;;;1.98;0.77;;;9.60;63.20;;;;;;2446115;53;20923;-64
2021/10/01 05:14:09;;;;;;;1.95;0.70;;;9.60;63.20;;;;;;2325783;54;20954;-65
2021/10/01 05:16:37;;;;;;;2.12;0.65;;;9.60;63.30;;;;;;2343996;54;20962;-64
2021/10/01 05:19:03;;;;;;;1.87;0.73;;;9.50;63.10;;;;;;2328319;53;21459;-65
2021/10/01 05:21:30;;;;;;;3.08;1.10;;;9.50;63.10;;;;;;2570553;53;20935;-65
2021/10/01 05:23:56;;;;;;;3.58;1.05;;;9.50;63.20;;;;;;2341110;54;20994;-65
2021/10/01 05:26:22;;;;;;;3.65;1.45;;;9.50;63.20;;;;;;2322106;54;21003;-65
2021/10/01 05:28:52;;;;;;;3.30;1.33;;;9.50;63.30;;;;;;2325409;54;20994;-64
2021/10/01 05:31:19;;;;;;;2.97;1.30;;;9.50;63.30;;;;;;2547378;53;20951;-65
2021/10/01 05:33:45;;;;;;;3.17;1.30;;;9.50;63.20;;;;;;2337086;54;20991;-65
2021/10/01 05:36:11;;;;;;;3.47;1.25;;;9.40;63.20;;;;;;2326238;54;21011;-65
2021/10/01 05:38:38;;;;;;;4.03;1.20;;;9.50;63.30;;;;;;2337418;54;20979;-64
2021/10/01 05:41:07;;;;;;;5.00;1.58;;;9.50;63.50;;;;;;2342150;55;20916;-64
2021/10/01 05:43:33;;;;;;;3.15;1.00;;;9.50;63.60;;;;;;2322698;55;21003;-64
2021/10/01 05:46:02;;;;;;;2.75;1.12;;;9.50;63.70;;;;;;2535583;53;20967;-65
2021/10/01 05:48:33;;;;;;;2.40;1.02;;;9.50;63.60;;;;;;2339865;54;20908;-63
2021/10/01 05:51:04;;;;;;;2.55;1.02;;;9.50;63.70;;;;;;2555123;53;20927;-63
2021/10/01 05:53:48;;;;;;;2.92;1.10;;;9.50;63.70;;;;;;2323228;54;20971;-64
2021/10/01 05:56:18;;;;;;;2.45;0.90;;;9.50;63.70;;;;;;2559615;52;20971;-64
2021/10/01 05:58:47;;;;;;;2.60;0.98;;;9.50;63.70;;;;;;2326763;54;20947;-65
2021/10/01 06:01:13;;;;;;;2.58;0.88;;;9.60;63.90;;;;;;2588404;53;21020;-66
2021/10/01 06:03:41;;;;;;;2.33;0.90;;;9.60;64.00;;;;;;2331097;54;21776;-66
2021/10/01 06:06:09;;;;;;;2.42;1.00;;;9.60;63.90;;;;;;2561131;53;20936;-65
2021/10/01 06:08:37;;;;;;;1.50;0.70;;;9.60;63.90;;;;;;2433203;53;21015;-64
2021/10/01 06:11:04;;;;;;;2.10;0.85;;;9.60;63.90;;;;;;2553491;52;20954;-64
2021/10/01 06:13:30;;;;;;;2.83;0.90;;;9.60;63.70;;;;;;2332649;54;22623;-64
2021/10/01 06:15:57;;;;;;;2.90;0.80;;;9.60;63.70;;;;;;2567366;52;20978;-63
2021/10/01 06:18:25;;;;;;;2.17;0.77;;;9.60;63.70;;;;;;2451214;52;21022;-64
2021/10/01 06:20:51;;;;;;;1.83;0.75;;;9.60;63.80;;;;;;2385493;53;20931;-65
2021/10/01 06:23:18;;;;;;;3.10;0.93;;;9.60;63.90;;;;;;2319962;54;20967;-64
2021/10/01 06:25:45;;;;;;;2.12;0.82;;;9.60;64.00;;;;;;2376308;53;20947;-64
2021/10/01 06:28:12;;;;;;;4.90;0.95;;;9.70;64.20;;;;;;2322345;54;20995;-64
2021/10/01 06:30:39;;;;;;;2.55;1.30;;;9.70;64.30;;;;;;2343535;54;20994;-64
2021/10/01 06:33:06;;;;;;;2.83;1.30;;;9.70;64.50;;;;;;2329443;54;20931;-63
2021/10/01 06:35:32;;;;;;;2.67;1.40;;;9.70;64.60;;;;;;2350573;53;20943;-64
2021/10/01 06:37:58;;;;;;;3.67;1.50;;;9.70;64.70;;;;;;2564453;53;20923;-65
2021/10/01 06:40:24;;;;;;;3.58;1.30;;;9.80;64.80;;;;;;2344291;55;20951;-66
2021/10/01 06:42:53;;;;;;;2.80;1.40;;;9.80;64.90;;;;;;2326653;54;20951;-65
2021/10/01 06:45:23;;;;;;;3.22;1.48;;;9.90;65.20;;;;;;2581361;53;20935;-64
2021/10/01 06:48:09;;;;;;;3.50;1.40;;;10.00;64.20;;;;;;2339005;54;21027;-65
2021/10/01 06:51:14;;;;;;;2.42;1.20;;;10.00;64.20;;;;;;2329561;54;20940;-64
2021/10/01 08:20:52;;;;;;;3.95;1.45;;;13.20;67.00;;;;;;2342328;55;21043;-66
2021/10/01 08:23:18;;;;;;;4.60;1.45;;;13.30;67.10;;;;;;2336154;54;20971;-69
2021/10/01 08:25:45;;;;;;;2.80;1.10;;;13.50;67.20;;;;;;2324009;54;21464;-68
2021/10/01 08:28:11;;;;;;;2.72;1.00;;;13.60;67.20;;;;;;2341902;54;20927;-66
2021/10/01 08:30:38;;;;;;;2.80;1.10;;;13.70;67.30;;;;;;2589009;53;21397;-65
2021/10/01 08:33:06;;;;;;;2.37;0.90;;;13.90;67.40;;;;;;2341928;54;20948;-65
2021/10/01 08:35:33;;;;;;;2.75;0.90;;;14.10;67.60;;;;;;2588762;53;20944;-68
2021/10/01 08:37:59;;;;;;;2.50;0.80;;;14.20;67.30;;;;;;2322846;55;21039;-65
2021/10/01 08:40:25;;;;;;;1.58;0.60;;;14.40;67.50;;;;;;2322131;54;20987;-66
2021/10/01 08:42:52;;;;;;;1.60;0.60;;;14.60;67.50;;;;;;2335191;54;20939;-67
2021/10/01 08:45:20;;;;;;;3.75;0.70;;;14.80;67.30;;;;;;2318353;54;21028;-65
2021/10/01 08:47:49;;;;;;;1.87;0.65;;;14.90;67.10;;;;;;2327617;54;20959;-65
2021/10/01 08:50:19;;;;;;;1.73;0.60;;;15.10;66.80;;;;;;2342543;55;21006;-65
2021/10/01 08:52:45;;;;;;;2.95;0.65;;;15.20;66.50;;;;;;2342434;53;21783;-65
2021/10/01 08:55:12;;;;;;;2.33;0.90;;;15.40;66.50;;;;;;2321504;54;20942;-69
2021/10/01 08:57:38;;;;;;;1.48;0.70;;;15.60;66.30;;;;;;2341445;55;20956;-66
2021/10/01 09:00:08;;;;;;;2.80;0.70;;;15.70;66.10;;;;;;2315207;55;21095;-67
2021/10/01 09:02:34;;;;;;;2.75;0.82;;;15.90;66.00;;;;;;2331604;54;20943;-66
2021/10/01 09:05:01;;;;;;;1.95;0.80;;;16.00;66.10;;;;;;2342348;55;21529;-66
2021/10/01 09:07:27;;;;;;;2.92;0.80;;;16.10;65.90;;;;;;2342126;55;21003;-66
2021/10/01 09:09:53;;;;;;;2.22;0.80;;;16.30;65.80;;;;;;2466317;53;20923;-66
2021/10/01 09:12:22;;;;;;;2.28;0.70;;;16.40;65.70;;;;;;2342117;54;20960;-68
2021/10/01 09:14:57;;;;;;;1.87;0.70;;;16.60;65.60;;;;;;2341197;55;20947;-65
2021/10/01 09:17:30;;;;;;;1.92;0.65;;;16.70;64.90;;;;;;2320290;54;21829;-68
2021/10/01 09:19:58;;;;;;;2.97;0.85;;;16.80;65.10;;;;;;2565316;52;22058;-66
2021/10/01 09:22:33;;;;;;;2.30;0.80;;;17.00;65.00;;;;;;2333664;53;20975;-65
2021/10/01 09:28:42;;;;;;;2.25;0.80;;;17.10;64.50;;;;;;2587844;53;20931;-65
2021/10/01 09:31:11;;;;;;;1.62;0.60;;;17.40;63.60;;;;;;2376159;53;21011;-66
2021/10/01 09:33:42;;;;;;;4.20;0.60;;;17.50;64.60;;;;;;2342691;55;20951;-68
2021/10/01 09:36:09;;;;;;;2.47;1.00;;;17.60;64.00;;;;;;2587178;53;21559;-65
2021/10/01 09:38:36;;;;;;;1.30;0.60;;;17.60;64.20;;;;;;2330254;54;21027;-71
2021/10/01 09:41:13;;;;;;;3.00;0.68;;;17.80;64.10;;;;;;2578795;53;20955;-66
2021/10/01 09:43:39;;;;;;;2.20;0.80;;;17.80;63.10;;;;;;2342328;55;20931;-68
2021/10/01 09:46:08;;;;;;;2.22;0.60;;;17.90;63.60;;;;;;2338739;54;20919;-66
2021/10/01 09:48:35;;;;;;;3.50;0.90;;;18.00;63.40;;;;;;2320926;54;20928;-68
2021/10/01 09:51:26;;;;;;;3.78;1.02;;;18.10;63.20;;;;;;2332770;54;20958;-66
2021/10/01 09:53:54;;;;;;;2.35;0.95;;;18.10;62.60;;;;;;2339006;54;20947;-68
2021/10/01 09:56:29;;;;;;;2.08;0.90;;;18.20;63.20;;;;;;2332019;54;20979;-67
2021/10/01 09:59:12;;;;;;;1.70;0.75;;;18.30;63.00;;;;;;2332214;54;21003;-66
2021/10/01 10:05:17;;;;;;;2.03;0.70;;;18.40;62.40;;;;;;2567466;53;20947;-66
2021/10/01 10:07:46;;;;;;;3.95;0.90;;;18.70;62.20;;;;;;2330709;54;20974;-71
2021/10/01 10:10:13;;;;;;;1.42;0.62;;;18.70;62.90;;;;;;2465309;53;20935;-66
2021/10/01 10:12:44;;;;;;;1.62;0.70;;;18.80;62.70;;;;;;2344074;54;21026;-64
2021/10/01 10:15:12;;;;;;;3.67;0.90;;;18.90;62.60;;;;;;2318308;54;21550;-67
2021/10/01 10:17:50;;;;;;;3.10;0.80;;;19.00;63.10;;;;;;2451817;53;20927;-67
2021/10/01 10:20:17;;;;;;;2.37;0.80;;;19.00;61.50;;;;;;2322042;54;21518;-67
2021/10/01 10:22:43;;;;;;;2.25;1.05;;;19.10;62.20;;;;;;2588255;53;20960;-67
2021/10/01 10:25:10;;;;;;;3.90;0.85;;;19.20;62.30;;;;;;2331123;54;21527;-68
2021/10/01 10:27:37;;;;;;;4.00;1.10;;;19.30;62.20;;;;;;2332327;54;20960;-71
2021/10/01 10:30:07;;;;;;;3.80;0.90;;;19.40;61.60;;;;;;2341844;55;20979;-69
2021/10/01 10:32:34;;;;;;;1.60;0.50;;;19.40;61.40;;;;;;2342814;54;21790;-65
2021/10/01 10:35:04;;;;;;;2.22;0.80;;;19.50;62.00;;;;;;2364395;53;20956;-68
2021/10/01 10:37:42;;;;;;;1.95;0.77;;;19.60;62.20;;;;;;2302489;55;20959;-71
2021/10/01 10:40:18;;;;;;;3.67;0.80;;;19.70;61.70;;;;;;2341423;55;21464;-68
2021/10/01 10:42:48;;;;;;;1.77;0.60;;;19.80;61.30;;;;;;2341959;54;20947;-69
2021/10/01 10:45:19;;;;;;;2.08;0.80;;;19.90;61.90;;;;;;2396788;53;22116;-70
2021/10/01 10:48:12;;;;;;;2.83;0.85;;;20.00;61.50;;;;;;2336878;54;21056;-66
2021/10/01 10:50:46;;;;;;;4.03;0.52;;;20.10;60.60;;;;;;2574042;53;21341;-70
2021/10/01 10:53:28;;;;;;;2.35;1.12;;;20.20;61.00;;;;;;2317020;54;20953;-67
2021/10/01 10:55:59;;;;;;;1.20;0.60;;;20.30;60.10;;;;;;2457651;53;20943;-67
2021/10/01 10:58:45;;;;;;;4.15;1.62;;;20.40;60.80;;;;;;2335830;54;20991;-70
2021/10/01 11:01:34;;;;;;;3.22;1.37;;;20.40;59.60;;;;;;2331975;54;21047;-65
2021/10/01 11:04:19;;;;;;;2.25;1.00;;;20.50;59.50;;;;;;2330422;54;21801;-66
2021/10/01 11:06:46;;;;;;;2.87;0.77;;;20.50;59.50;;;;;;2428060;53;21086;-70
2021/10/01 11:09:23;;;;;;;1.87;0.77;;;20.60;60.60;;;;;;2339055;54;21972;-69
2021/10/01 11:11:53;;;;;;;1.92;0.70;;;20.70;59.90;;;;;;2327761;54;20932;-66
2021/10/01 11:14:25;;;;;;;1.17;0.50;;;20.70;60.50;;;;;;2322112;54;20987;-66
2021/10/01 11:17:36;;;;;;;1.55;0.60;;;20.80;60.70;;;;;;2313576;54;21460;-70
2021/10/01 11:20:04;;;;;;;1.83;0.60;;;20.90;59.30;;;;;;2341862;54;20955;-69
2021/10/01 11:22:38;;;;;;;2.67;0.68;;;21.00;60.80;;;;;;2440245;53;21714;-70
2021/10/01 11:25:17;;;;;;;1.85;0.70;;;21.10;60.00;;;;;;2329545;54;20950;-66
2021/10/01 11:27:57;;;;;;;2.22;0.75;;;21.20;59.70;;;;;;2478256;52;20996;-70
2021/10/01 11:30:25;;;;;;;2.92;0.80;;;21.20;59.40;;;;;;2342317;54;20959;-72
2021/10/01 11:32:51;;;;;;;2.10;0.75;;;21.30;60.00;;;;;;2588410;53;21745;-70
2021/10/01 11:35:20;;;;;;;2.78;0.90;;;21.40;59.90;;;;;;2318946;54;20971;-69
2021/10/01 11:37:49;;;;;;;1.75;0.60;;;21.40;59.80;;;;;;2309765;54;20979;-67
2021/10/01 11:40:27;;;;;;;2.12;0.88;;;21.50;59.80;;;;;;2305969;55;21392;-69
2021/10/01 11:42:55;;;;;;;1.25;0.60;;;21.60;59.10;;;;;;2515335;53;21432;-69
2021/10/01 11:45:32;;;;;;;2.30;0.60;;;21.70;59.60;;;;;;2434703;53;21433;-67
2021/10/01 11:48:00;;;;;;;2.20;0.80;;;21.80;58.70;;;;;;2326057;54;21462;-72
2021/10/01 11:50:38;;;;;;;2.15;0.70;;;21.80;59.30;;;;;;2332658;54;21003;-71
2021/10/01 11:53:06;;;;;;;2.83;0.75;;;21.90;58.90;;;;;;2577505;53;21051;-67
2021/10/01 11:55:35;;;;;;;3.35;0.90;;;22.00;58.80;;;;;;2324303;54;21042;-69
2021/10/01 11:58:02;;;;;;;1.73;0.70;;;22.10;58.80;;;;;;2326949;54;20971;-67
2021/10/01 12:00:28;;;;;;;1.77;0.62;;;22.10;58.70;;;;;;2569813;52;20942;-65
2021/10/01 12:02:55;;;;;;;3.17;0.65;;;22.20;58.60;;;;;;2328215;54;20991;-67
2021/10/01 12:05:32;;;;;;;1.58;0.50;;;22.30;58.80;;;;;;2328655;54;21818;-67
2021/10/01 12:08:09;;;;;;;3.08;0.80;;;22.40;58.20;;;;;;2331931;54;20932;-66
2021/10/01 12:10:40;;;;;;;2.12;0.85;;;22.50;58.00;;;;;;2338579;54;21003;-66
2021/10/01 12:13:41;;;;;;;1.50;0.70;;;22.60;58.30;;;;;;2335929;54;20939;-68
2021/10/01 12:16:10;;;;;;;2.83;1.00;;;22.70;57.80;;;;;;2342083;55;20931;-66
2021/10/01 12:18:48;;;;;;;3.00;0.80;;;22.80;57.80;;;;;;2402516;53;20931;-66
2021/10/01 12:21:16;;;;;;;1.48;0.55;;;22.80;58.00;;;;;;2337508;54;20971;-66
2021/10/01 12:23:50;;;;;;;2.78;0.73;;;22.90;57.40;;;;;;2323282;54;20935;-70
2021/10/01 12:26:24;;;;;;;2.40;0.68;;;22.90;56.80;;;;;;2334905;54;21062;-70
2021/10/01 12:29:01;;;;;;;6.12;0.90;;;23.10;56.60;;;;;;2372099;53;20987;-68
2021/10/01 12:31:29;;;;;;;1.27;0.47;;;23.10;56.60;;;;;;2327737;54;21035;-67
2021/10/01 12:34:00;;;;;;;2.10;0.70;;;23.10;57.10;;;;;;2329019;54;21821;-68
2021/10/01 12:36:26;;;;;;;3.65;0.70;;;23.20;57.10;;;;;;2330256;54;21020;-68
2021/10/01 12:38:56;;;;;;;1.40;0.68;;;23.20;56.90;;;;;;2342317;55;20980;-66
2021/10/01 12:41:24;;;;;;;2.03;0.80;;;23.30;56.30;;;;;;2342811;55;20979;-69
2021/10/01 12:43:54;;;;;;;2.55;0.80;;;23.40;56.30;;;;;;2341866;55;20959;-68
2021/10/01 12:46:43;;;;;;;2.83;0.77;;;23.40;55.70;;;;;;2405802;53;20938;-67
2021/10/01 12:49:35;;;;;;;1.52;0.60;;;23.50;54.80;;;;;;2342148;54;20963;-66
2021/10/01 12:52:21;;;;;;;1.80;0.57;;;23.50;54.90;;;;;;2589389;53;21090;-67
2021/10/01 12:54:48;;;;;;;2.60;0.70;;;23.60;54.60;;;;;;2324618;54;20951;-68
2021/10/01 12:57:52;;;;;;;1.95;0.60;;;23.70;55.50;;;;;;2333590;54;20940;-68
2021/10/01 13:00:32;;;;;;;1.50;0.60;;;23.80;55.00;;;;;;2331603;54;20987;-71
2021/10/01 13:03:06;;;;;;;3.12;0.82;;;23.80;54.80;;;;;;2322662;54;21416;-71
2021/10/01 13:05:37;;;;;;;2.25;0.70;;;23.90;55.00;;;;;;2315489;55;21043;-66
2021/10/01 13:08:14;;;;;;;2.00;0.70;;;24.00;54.40;;;;;;2334081;54;20955;-68
2021/10/01 13:10:59;;;;;;;2.00;0.82;;;24.00;54.20;;;;;;2342201;55;20932;-69
2021/10/01 13:13:33;;;;;;;2.40;0.73;;;24.20;54.00;;;;;;2588978;53;20998;-69
2021/10/01 13:16:36;;;;;;;2.37;0.90;;;24.20;54.50;;;;;;2327645;54;21031;-69
2021/10/01 13:19:03;;;;;;;1.40;0.62;;;24.30;53.20;;;;;;2336570;55;21318;-70
2021/10/01 13:21:29;;;;;;;1.70;0.73;;;24.30;54.00;;;;;;2321831;54;21879;-72
2021/10/01 13:23:59;;;;;;;2.37;0.70;;;24.40;54.40;;;;;;2342167;55;20954;-66
2021/10/01 13:26:29;;;;;;;1.85;0.90;;;24.40;54.40;;;;;;2324191;54;21551;-70
2021/10/01 13:29:01;;;;;;;1.95;0.80;;;24.50;54.40;;;;;;2340582;54;21404;-67
2021/10/01 13:31:42;;;;;;;2.67;0.80;;;24.60;54.20;;;;;;2586084;53;21042;-70
2021/10/01 13:34:08;;;;;;;1.85;0.70;;;24.60;53.60;;;;;;2345305;55;21047;-69
2021/10/01 13:36:37;;;;;;;2.10;0.95;;;24.70;54.00;;;;;;2331921;54;20983;-68
2021/10/01 13:39:04;;;;;;;2.45;0.80;;;24.80;53.80;;;;;;2324715;54;20942;-74
2021/10/01 13:41:30;;;;;;;1.75;0.50;;;24.80;53.70;;;;;;2523268;53;20994;-66
2021/10/01 13:43:57;;;;;;;1.55;0.60;;;24.90;54.00;;;;;;2321398;54;21503;-67
2021/10/01 13:46:24;;;;;;;1.40;0.68;;;24.90;54.00;;;;;;2329472;54;21027;-68
2021/10/01 13:48:50;;;;;;;2.67;0.80;;;25.00;54.00;;;;;;2322931;54;21030;-68
2021/10/01 13:51:17;;;;;;;3.08;0.90;;;25.10;53.70;;;;;;2331767;54;20999;-71
2021/10/01 13:53:43;;;;;;;2.70;1.15;;;25.20;53.50;;;;;;2386140;53;21476;-71
2021/10/01 13:56:10;;;;;;;2.22;0.88;;;25.20;52.50;;;;;;2341968;54;20959;-67
2021/10/01 13:58:36;;;;;;;2.53;1.20;;;25.30;52.70;;;;;;2323352;54;20955;-69
2021/10/01 14:01:04;;;;;;;2.10;0.98;;;25.40;52.70;;;;;;2328122;54;21054;-66
2021/10/01 14:03:30;;;;;;;3.08;1.10;;;25.40;52.40;;;;;;2332406;54;20947;-67
2021/10/01 14:05:57;;;;;;;3.28;1.10;;;25.50;52.10;;;;;;2323228;54;21006;-66
2021/10/01 14:08:24;;;;;;;3.65;1.30;;;25.50;51.80;;;;;;2569542;53;21376;-68
2021/10/01 14:10:51;;;;;;;2.87;1.00;;;25.60;52.10;;;;;;2341613;55;20947;-66
2021/10/01 14:13:17;;;;;;;2.50;1.27;;;25.60;52.20;;;;;;2369808;53;21781;-70
2021/10/01 14:15:47;;;;;;;2.53;1.12;;;25.70;52.30;;;;;;2317827;54;20951;-67
2021/10/01 14:18:14;;;;;;;3.40;1.40;;;25.80;52.00;;;;;;2554379;53;20991;-67
2021/10/01 14:20:42;;;;;;;4.55;1.10;;;25.80;51.90;;;;;;2321781;54;20984;-67
2021/10/01 14:23:09;;;;;;;2.95;1.10;;;25.90;51.60;;;;;;2559646;52;20922;-66
2021/10/01 14:25:38;;;;;;;3.40;1.30;;;26.00;51.30;;;;;;2322323;54;21733;-68
2021/10/01 14:28:05;;;;;;;4.00;1.10;;;26.00;51.20;;;;;;2587221;53;21977;-66
2021/10/01 14:30:31;;;;;;;3.03;1.05;;;26.10;51.10;;;;;;2341687;55;20934;-66
2021/10/01 14:32:58;;;;;;;2.10;0.98;;;26.10;51.40;;;;;;2441254;53;21070;-69
2021/10/01 14:35:33;;;;;;;2.25;1.05;;;26.20;51.40;;;;;;2337248;53;20924;-68
2021/10/01 14:38:06;;;;;;;4.35;1.30;;;26.30;51.30;;;;;;2587827;53;21981;-68
2021/10/01 14:40:33;;;;;;;2.33;1.02;;;26.30;51.30;;;;;;2341429;55;20947;-70
2021/10/01 14:43:00;;;;;;;3.25;1.27;;;26.40;51.30;;;;;;2325104;54;21830;-67
2021/10/01 14:45:26;;;;;;;2.50;0.82;;;26.40;51.00;;;;;;2323945;54;20951;-69
2021/10/01 14:47:52;;;;;;;3.95;1.30;;;26.50;51.30;;;;;;2502829;53;21008;-69
2021/10/01 14:50:19;;;;;;;2.35;1.10;;;26.50;51.00;;;;;;2342306;55;20959;-68